ADDS METAR Data INFO
IDs: Format: Raw Decoded Include TAF

Data at: 1715 UTC 23 Oct 2017

KLUK 231653Z 18006KT 10SM -RA FEW055 BKN090 OVC110 18/17 A2976 RMK AO2 RAE04B26 PRESFR SLP075 P0001 T01780167
KLUK 231553Z 19007KT 10SM -RA OVC070 17/17 A2980 RMK AO2 SLP088 P0001 T01720167
KLUK 231453Z 20009KT 5SM -RA BR FEW010 BKN039 OVC050 17/16 A2982 RMK AO2 WSHFT 1412 SLP097 P0032 60036 T01670161 55011
KLUK 231434Z 23012KT 3SM R21L/5500VP6000FT +RA BR SCT018 BKN039 OVC050 17/17 A2982 RMK AO2 WSHFT 1412 P0027 T01670167
KLUK 231427Z 23014G24KT 3SM +RA BR FEW014 BKN024 OVC060 17/16 A2982 RMK AO2 WSHFT 1412 P0020 T01670161
KLUK 231353Z 14006KT 3SM +RA BR SCT070 BKN090 OVC110 18/16 A2981 RMK AO2 SLP093 P0004 T01780156
KLUK 231340Z VRB05KT 6SM RA BR FEW070 OVC110 18/15 A2982 RMK AO2 P0000 T01830150
KLUK 231253Z 12006KT 10SM -RA BKN110 18/15 A2982 RMK AO2 SLP097 P0000 T01830150
KLUK 231153Z VRB03KT 10SM -RA FEW055 BKN080 BKN120 18/14 A2986 RMK AO2 RAE03B25 SLP107 P0001 60001 70001 T01830144 10194 20144 58027
KLUK 231053Z 15006KT 10SM -RA FEW060 BKN090 OVC110 19/13 A2989 RMK AO2 RAB53 SLP120 P0000 T01890133
KLUK 230953Z AUTO 00000KT 10SM FEW080 SCT110 18/13 A2991 RMK AO2 SLP124 T01830128
KLUK 230853Z AUTO VRB05KT 10SM CLR 19/13 A2994 RMK AO2 SLP134 T01890128 58021
KLUK 230753Z AUTO 18004KT 10SM FEW110 19/12 A2997 RMK AO2 SLP143 T01890122
KLUK 230653Z AUTO 00000KT 10SM CLR 15/13 A2999 RMK AO2 SLP151 T01500133
KLUK 230553Z AUTO 00000KT 10SM CLR 15/13 A3000 RMK AO2 SLP156 T01500133 10178 20139 56017
KLUK 230453Z AUTO 23003KT 10SM CLR 15/14 A3002 RMK AO2 SLP163 T01500139 402500067
KLUK 230353Z AUTO 00000KT 10SM CLR 16/13 A3003 RMK AO2 SLP166 T01560133
KLUK 230253Z 00000KT 10SM CLR 16/13 A3005 RMK AO2 SLP174 T01610128 58016
KLUK 230153Z 00000KT 10SM CLR 14/13 A3007 RMK AO2 SLP183 T01440128
KLUK 230053Z 00000KT 10SM CLR 16/13 A3008 RMK AO2 SLP187 T01560128
KLUK 222353Z 00000KT 10SM CLR 18/12 A3010 RMK AO2 SLP192 T01780117 10250 20178 55005
KLUK 222253Z 13004KT 10SM CLR 20/11 A3009 RMK AO2 SLP190 T02000111
KLUK 222153Z 16007KT 10SM CLR 21/12 A3011 RMK AO2 SLP196 T02110117
KLUK 222053Z 17015G21KT 10SM CLR 23/11 A3011 RMK AO2 SLP196 T02330111 56010
KLUK 221953Z 17011KT 10SM CLR 23/12 A3012 RMK AO2 SLP198 T02280117
KLUK 221853Z 18011KT 10SM CLR 24/13 A3012 RMK AO2 SLP198 T02390133
KLUK 221753Z 19015G19KT 10SM CLR 24/13 A3014 RMK AO2 SLP206 T02390133 10244 20083 58025
KLUK 221653Z 19011KT 10SM CLR 22/13 A3018 RMK AO2 SLP219 T02220128
KLUK 221553Z 19010KT 10SM CLR 21/12 A3021 RMK AO2 SLP229 T02110122
KLUK 221453Z 19007KT 10SM CLR 19/13 A3022 RMK AO2 SLP232 T01940128 50008
KLUK 221353Z 19004KT 10SM CLR 15/13 A3023 RMK AO2 SLP235 T01500133
KLUK 221253Z 00000KT 8SM R21L/5000VP6000FT CLR 11/10 A3022 RMK AO2 SLP234 T01060100
KLUK 221153Z 05003KT 10SM R21L/2200V5000FT CLR 08/08 A3020 RMK AO2 SLP225 T00830083 10094 20067 56001
KLUK 221053Z 00000KT 5SM R21L/4000VP6000FT BR CLR 08/08 A3020 RMK AO2 SLP225 T00830078
KLUK 221028Z AUTO 00000KT 4SM R21L/1400V2400FT BR CLR 08/08 A3019 RMK AO2 T00830083
KLUK 221017Z AUTO 00000KT 2 1/2SM R21L/2000VP6000FT BR CLR 08/08 A3019 RMK AO2 T00830083
KLUK 220953Z AUTO 07003KT 1 1/2SM R21L/1400V4000FT BR CLR 08/08 A3019 RMK AO2 SLP222 T00830083
KLUK 220941Z AUTO 00000KT 2 1/2SM R21L/1800VP6000FT BR CLR 08/08 A3019 RMK AO2 T00780078
KLUK 220938Z AUTO 00000KT 3/4SM R21L/3500V6000FT BR VV002 07/07 A3019 RMK AO2 T00720072
KLUK 220925Z AUTO 00000KT 1/2SM R21L/2000VP6000FT FG VV003 07/07 A3019 RMK AO2 T00670067
KLUK 220909Z AUTO 00000KT 1/2SM R21L/4000VP6000FT FG VV002 07/07 A3020 RMK AO2 T00670067
KLUK 220906Z AUTO 00000KT 1 1/2SM R21L/2000VP6000FT BR CLR 07/07 A3020 RMK AO2 VIS 1/4V5 T00670067
KLUK 220901Z AUTO 00000KT 3SM R21L/1600V4500FT BR CLR 08/08 A3020 RMK AO2 T00830083
KLUK 220853Z AUTO 00000KT 1SM R21L/1600V3000FT BR CLR 08/08 A3020 RMK AO2 SLP224 T00780078 58001
KLUK 220837Z AUTO 00000KT 1/2SM R21L/1800V5500FT FG CLR 08/08 A3020 RMK AO2 T00830083
KLUK 220822Z AUTO 00000KT 1 1/2SM R21L/1800V4500FT BR CLR 08/08 A3021 RMK AO2 T00830083
KLUK 220809Z AUTO 00000KT 3/4SM R21L/1400V3000FT BR CLR 08/08 A3020 RMK AO2 T00830083
KLUK 220753Z AUTO 00000KT 2SM R21L/1200V1600FT BR CLR 09/09 A3021 RMK AO2 SLP227 T00890089
KLUK 220727Z AUTO 00000KT 1 3/4SM R21L/2200V5500FT BR CLR 08/08 A3020 RMK AO2 VIS 1/2V5 T00830083
KLUK 220653Z AUTO 00000KT 3SM R21L/1800VP6000FT BR CLR 09/09 A3021 RMK AO2 SLP227 T00940094
KLUK 220649Z AUTO 00000KT 2SM R21L/3500VP6000FT BR CLR 09/09 A3021 RMK AO2
KLUK 220641Z AUTO 00000KT 1/2SM R21L/P6000FT FG CLR 09/09 A3021 RMK AO2 T00890089
KLUK 220627Z AUTO 00000KT 1 3/4SM BR CLR 09/09 A3021 RMK AO2 VIS 1V5 T00890089
KLUK 220619Z AUTO 00000KT 3SM BR CLR 09/09 A3021 RMK AO2 T00890089
KLUK 220553Z AUTO 00000KT 1SM R21L/2600VP6000FT BR CLR 09/09 A3020 RMK AO2 SLP225 T00940094 10144 20094 58001
KLUK 220549Z AUTO 00000KT 4SM R21L/3500VP6000FT BR CLR 09/09 A3020 RMK AO2
KLUK 220539Z AUTO 00000KT 2SM R21L/1400VP6000FT BR CLR 09/09 A3020 RMK AO2 T00940094